BKPR/PRN METAR and TAF weather

Enter ICAO airport designator
Station Type Date Time Source
BKPR METAR 2019/04/18 20:30 UTC NOAA

BKPR 182030Z 34009KT 9999 FEW080 08/01 Q1026 NOSIG


Station Type Date Time Source
BKPR Decoded METAR 2019/04/18 20:30 UTC NOAA

Station name not available
Apr 18, 2019 - 04:30 PM EDT / 2019.04.18 2030 UTC
Wind: from the NNW (340 degrees) at 10 MPH (9 KT):0
Visibility: greater than 7 mile(s):0
Sky conditions: mostly clear
Temperature: 46 F (8 C)
Dew Point: 33 F (1 C)
Relative Humidity: 61%
Pressure (altimeter): 30.30 in. Hg (1026 hPa)
ob: BKPR 182030Z 34009KT 9999 FEW080 08/01 Q1026 NOSIG
cycle: 20

Station Type Date Time Source
BKPR TAF 2019/04/18 18:30 UTC NOAA

TAF BKPR 181730Z 1818/1918 35008KT 9999 FEW025 SCT050
TEMPO 1908/1918 35018KT 5000 -SHRA

Example: see airport list